Time;durP1;ratioP1;P1;durP2;ratioP2;P2;SDS_P1;SDS_P2;PMS_P1;PMS_P2;Temp;Humidity;BMP_temperature;BMP_pressure;BME280_temperature;BME280_humidity;BME280_pressure;Samples;Min_cycle;Max_cycle;Signal;HPM_P1;HPM_P2
2023/01/16 00:00:41;;;;;;;;;;;5.10;99.90;;;;;;5038974;28;19913;-67
2023/01/16 00:03:07;;;;;;;;;;;5.00;99.90;;;;;;5038121;28;19971;-67
2023/01/16 00:05:32;;;;;;;;;;;5.10;99.90;;;;;;5047141;28;19909;-66
2023/01/16 00:07:58;;;;;;;;;;;5.20;99.90;;;;;;5043922;28;19927;-66
2023/01/16 00:10:23;;;;;;;;;;;5.20;99.90;;;;;;5056957;28;20003;-66
2023/01/16 00:12:49;;;;;;;;;;;5.30;99.90;;;;;;5056812;28;20288;-66
2023/01/16 00:15:14;;;;;;;;;;;5.40;99.90;;;;;;5057126;28;19904;-66
2023/01/16 00:17:39;;;;;;;;;;;5.40;99.90;;;;;;5055085;28;19909;-66
2023/01/16 00:20:05;;;;;;;;;;;5.50;99.90;;;;;;5045926;28;19905;-66
2023/01/16 00:22:30;;;;;;;;;;;5.40;99.90;;;;;;5055961;28;19909;-66
2023/01/16 00:24:56;;;;;;;;;;;5.30;99.90;;;;;;5056950;28;19911;-66
2023/01/16 00:27:21;;;;;;;;;;;5.30;99.90;;;;;;5056803;28;19932;-66
2023/01/16 00:29:47;;;;;;;;;;;5.20;99.90;;;;;;5056837;28;19911;-66
2023/01/16 00:32:15;;;;;;;;;;;5.20;99.90;;;;;;5057154;28;19905;-66
2023/01/16 00:34:40;;;;;;;;;;;5.20;99.90;;;;;;5056688;28;19954;-66
2023/01/16 00:37:06;;;;;;;;;;;5.20;99.90;;;;;;5038714;28;20287;-66
2023/01/16 00:39:32;;;;;;;;;;;5.10;99.90;;;;;;5056442;28;19905;-66
2023/01/16 00:41:58;;;;;;;;;;;5.20;99.90;;;;;;5056558;28;19915;-66
2023/01/16 00:44:23;;;;;;;;;;;5.20;99.90;;;;;;5056580;28;19908;-66
2023/01/16 00:46:49;;;;;;;;;;;5.20;99.90;;;;;;5056624;28;19905;-66
2023/01/16 00:49:14;;;;;;;;;;;5.20;99.90;;;;;;5056553;28;19905;-66
2023/01/16 00:51:40;;;;;;;;;;;5.20;99.90;;;;;;5056729;28;20387;-66
2023/01/16 00:54:05;;;;;;;;;;;5.20;99.90;;;;;;5056479;28;19912;-66
2023/01/16 00:56:31;;;;;;;;;;;5.10;99.90;;;;;;5056313;28;20330;-66
2023/01/16 00:58:56;;;;;;;;;;;5.10;99.90;;;;;;5056957;28;19975;-66
2023/01/16 01:01:22;;;;;;;;;;;5.10;99.90;;;;;;5056216;28;19932;-66
2023/01/16 01:03:47;;;;;;;;;;;5.10;99.90;;;;;;5056265;28;19912;-66
2023/01/16 01:06:12;;;;;;;;;;;5.10;99.90;;;;;;5056354;28;19936;-65
2023/01/16 01:08:38;;;;;;;;;;;5.10;99.90;;;;;;5056214;28;19911;-65
2023/01/16 01:11:07;;;;;;;;;;;5.10;99.90;;;;;;5055878;28;19916;-66
2023/01/16 01:13:33;;;;;;;;;;;5.00;99.90;;;;;;5055920;28;19911;-65
2023/01/16 01:15:58;;;;;;;;;;;5.00;99.90;;;;;;5056365;28;20279;-66
2023/01/16 01:18:24;;;;;;;;;;;5.00;99.90;;;;;;5056022;28;19908;-66
2023/01/16 01:20:49;;;;;;;;;;;5.00;99.90;;;;;;5037852;28;19908;-66
2023/01/16 01:23:14;;;;;;;;;;;5.00;99.90;;;;;;5055963;28;19905;-66
2023/01/16 01:25:40;;;;;;;;;;;4.90;99.90;;;;;;5055786;28;19905;-66
2023/01/16 01:28:05;;;;;;;;;;;4.90;99.90;;;;;;5055857;28;19905;-66
2023/01/16 01:30:31;;;;;;;;;;;4.90;99.90;;;;;;5055721;28;19905;-66
2023/01/16 01:32:56;;;;;;;;;;;4.90;99.90;;;;;;5055820;28;19905;-66
2023/01/16 01:35:22;;;;;;;;;;;4.90;99.90;;;;;;5055954;28;19958;-66
2023/01/16 01:37:47;;;;;;;;;;;4.80;99.90;;;;;;5055702;28;20248;-66
2023/01/16 01:40:13;;;;;;;;;;;4.90;99.90;;;;;;5055550;28;19905;-66
2023/01/16 01:42:51;;;;;;;;;;;4.80;99.90;;;;;;5055499;28;19908;-66
2023/01/16 01:45:17;;;;;;;;;;;4.80;99.90;;;;;;5039530;28;19996;-66
2023/01/16 01:47:45;;;;;;;;;;;4.80;99.90;;;;;;5037822;28;20402;-66
2023/01/16 01:50:13;;;;;;;;;;;4.90;99.90;;;;;;5035514;28;19912;-66
2023/01/16 01:52:39;;;;;;;;;;;4.80;99.90;;;;;;5035069;28;19912;-66
2023/01/16 01:55:05;;;;;;;;;;;4.80;99.90;;;;;;5035385;28;20276;-66
2023/01/16 01:57:37;;;;;;;;;;;4.90;99.90;;;;;;5042469;28;20319;-66
2023/01/16 02:00:11;;;;;;;;;;;4.90;99.90;;;;;;5055446;28;19999;-66
2023/01/16 02:02:38;;;;;;;;;;;4.80;99.90;;;;;;5055063;28;20402;-66
2023/01/16 02:05:05;;;;;;;;;;;4.80;99.90;;;;;;5055403;28;19909;-66
2023/01/16 02:07:30;;;;;;;;;;;4.80;99.90;;;;;;5054994;28;19905;-66
2023/01/16 02:10:00;;;;;;;;;;;4.80;99.90;;;;;;5055076;28;19912;-66
2023/01/16 02:12:27;;;;;;;;;;;4.80;99.90;;;;;;5055288;28;19944;-66
2023/01/16 02:14:54;;;;;;;;;;;4.80;99.90;;;;;;5055218;28;20350;-66
2023/01/16 02:20:03;;;;;;;;;;;4.80;99.90;;;;;;5055151;28;19924;-66
2023/01/16 02:22:31;;;;;;;;;;;4.80;99.90;;;;;;5055096;28;19909;-66
2023/01/16 02:25:16;;;;;;;;;;;4.80;99.90;;;;;;5041808;28;19934;-66
2023/01/16 02:27:57;;;;;;;;;;;4.80;99.90;;;;;;5034763;28;20410;-65
2023/01/16 02:30:29;;;;;;;;;;;4.80;99.90;;;;;;5045519;28;19952;-66
2023/01/16 02:33:07;;;;;;;;;;;4.80;99.90;;;;;;5054599;28;20360;-66
2023/01/16 02:35:33;;;;;;;;;;;4.80;99.90;;;;;;5054677;28;19912;-66
2023/01/16 02:38:07;;;;;;;;;;;4.80;99.90;;;;;;5054774;28;19904;-66
2023/01/16 02:40:47;;;;;;;;;;;4.70;99.90;;;;;;5047100;28;19905;-66
2023/01/16 02:43:17;;;;;;;;;;;4.80;99.90;;;;;;5054659;28;19905;-66
2023/01/16 02:45:47;;;;;;;;;;;4.80;99.90;;;;;;5054557;28;19905;-66
2023/01/16 02:48:21;;;;;;;;;;;4.80;99.90;;;;;;5054374;28;19905;-66
2023/01/16 02:50:52;;;;;;;;;;;4.70;99.90;;;;;;5054392;28;19905;-66
2023/01/16 02:53:20;;;;;;;;;;;4.80;99.90;;;;;;5054572;28;19951;-66
2023/01/16 02:55:49;;;;;;;;;;;4.80;99.90;;;;;;5054189;28;19927;-66
2023/01/16 02:58:16;;;;;;;;;;;4.80;99.90;;;;;;5054409;28;20284;-66
2023/01/16 03:00:48;;;;;;;;;;;4.80;99.90;;;;;;5054007;28;19904;-66
2023/01/16 03:03:32;;;;;;;;;;;4.80;99.90;;;;;;5017819;28;20368;-66
2023/01/16 03:06:02;;;;;;;;;;;4.80;99.90;;;;;;5038437;28;19994;-66
2023/01/16 03:08:28;;;;;;;;;;;4.80;99.90;;;;;;5034368;28;19905;-66
2023/01/16 03:10:55;;;;;;;;;;;4.80;99.90;;;;;;5034864;28;19920;-66
2023/01/16 03:13:21;;;;;;;;;;;4.80;99.90;;;;;;5034242;28;19912;-66
2023/01/16 03:15:58;;;;;;;;;;;4.80;99.90;;;;;;5044225;28;19905;-66
2023/01/16 03:18:32;;;;;;;;;;;4.80;99.90;;;;;;5050929;28;20003;-66
2023/01/16 03:21:12;;;;;;;;;;;4.80;99.90;;;;;;5042300;28;19960;-66
2023/01/16 03:23:50;;;;;;;;;;;4.80;99.90;;;;;;5042319;28;19904;-66
2023/01/16 03:26:38;;;;;;;;;;;4.80;99.90;;;;;;5053622;28;19974;-66
2023/01/16 03:29:07;;;;;;;;;;;4.80;99.90;;;;;;5053956;28;19915;-66
2023/01/16 03:31:33;;;;;;;;;;;4.70;99.90;;;;;;5053707;28;20399;-66
2023/01/16 03:34:08;;;;;;;;;;;4.70;99.90;;;;;;5053602;28;19958;-66
2023/01/16 03:36:43;;;;;;;;;;;4.70;99.90;;;;;;5054026;28;19908;-66
2023/01/16 03:39:10;;;;;;;;;;;4.70;99.90;;;;;;5053490;28;19951;-66
2023/01/16 03:41:37;;;;;;;;;;;4.60;99.90;;;;;;5053472;28;20405;-66
2023/01/16 03:44:07;;;;;;;;;;;4.70;99.90;;;;;;5053585;28;19904;-66
2023/01/16 03:46:36;;;;;;;;;;;4.70;99.90;;;;;;5053558;28;19911;-66
2023/01/16 03:49:05;;;;;;;;;;;4.70;99.90;;;;;;5053717;28;19904;-66
2023/01/16 03:51:33;;;;;;;;;;;4.70;99.90;;;;;;5053489;28;19911;-66
2023/01/16 03:54:01;;;;;;;;;;;4.70;99.90;;;;;;5053740;28;19999;-66
2023/01/16 03:56:30;;;;;;;;;;;4.60;99.90;;;;;;5054034;28;19904;-66
2023/01/16 03:58:56;;;;;;;;;;;4.60;99.90;;;;;;5054000;28;20356;-66
2023/01/16 04:01:34;;;;;;;;;;;4.50;99.90;;;;;;5053224;28;19955;-66
2023/01/16 04:04:25;;;;;;;;;;;4.50;99.90;;;;;;5053713;28;20395;-66
2023/01/16 04:06:55;;;;;;;;;;;4.50;99.90;;;;;;5017973;28;19912;-66
2023/01/16 04:09:23;;;;;;;;;;;4.40;99.90;;;;;;5043716;28;19909;-66
2023/01/16 04:11:49;;;;;;;;;;;4.40;99.90;;;;;;5043840;28;19965;-66
2023/01/16 04:14:14;;;;;;;;;;;4.40;99.90;;;;;;5053243;28;19999;-66
2023/01/16 04:16:40;;;;;;;;;;;4.40;99.90;;;;;;5028174;28;19905;-66
2023/01/16 04:19:07;;;;;;;;;;;4.40;99.90;;;;;;5033244;28;19911;-66
2023/01/16 04:21:33;;;;;;;;;;;4.30;99.90;;;;;;5033410;28;19909;-66
2023/01/16 04:23:59;;;;;;;;;;;4.20;99.90;;;;;;5033262;28;19909;-66
2023/01/16 04:26:24;;;;;;;;;;;4.20;99.90;;;;;;5033450;28;19959;-66
2023/01/16 04:28:54;;;;;;;;;;;4.10;99.90;;;;;;5049710;28;19905;-66
2023/01/16 04:31:21;;;;;;;;;;;4.00;99.90;;;;;;5053094;28;19940;-66
2023/01/16 04:33:46;;;;;;;;;;;4.10;99.90;;;;;;5052992;28;19904;-66
2023/01/16 04:36:12;;;;;;;;;;;4.00;99.90;;;;;;5053093;28;19909;-66
2023/01/16 04:38:37;;;;;;;;;;;4.00;99.90;;;;;;5050853;28;20003;-66
2023/01/16 04:41:03;;;;;;;;;;;3.90;99.90;;;;;;5052950;28;19908;-66
2023/01/16 04:43:28;;;;;;;;;;;4.00;99.90;;;;;;5052927;28;19905;-66
2023/01/16 04:45:54;;;;;;;;;;;3.90;99.90;;;;;;5053026;28;19909;-66
2023/01/16 04:48:19;;;;;;;;;;;3.90;99.90;;;;;;5053841;28;19953;-66
2023/01/16 04:50:47;;;;;;;;;;;3.80;99.90;;;;;;5047517;28;19998;-66
2023/01/16 04:53:12;;;;;;;;;;;3.70;99.90;;;;;;5056654;28;19912;-66
2023/01/16 04:55:38;;;;;;;;;;;3.60;99.90;;;;;;5055386;28;19909;-66
2023/01/16 04:58:03;;;;;;;;;;;3.50;99.90;;;;;;5052829;28;20292;-66
2023/01/16 05:00:28;;;;;;;;;;;3.50;99.90;;;;;;5056344;28;19927;-66
2023/01/16 05:02:54;;;;;;;;;;;3.40;99.90;;;;;;5049057;28;20016;-66
2023/01/16 05:05:19;;;;;;;;;;;3.40;99.90;;;;;;5036450;28;19905;-66
2023/01/16 05:07:45;;;;;;;;;;;3.40;99.90;;;;;;5036228;28;19909;-66
2023/01/16 05:10:10;;;;;;;;;;;3.40;99.90;;;;;;5036262;28;19919;-66
2023/01/16 05:12:36;;;;;;;;;;;3.40;99.90;;;;;;5036247;28;19937;-66
2023/01/16 05:15:01;;;;;;;;;;;3.40;99.90;;;;;;5036775;28;19909;-66
2023/01/16 05:17:26;;;;;;;;;;;3.40;99.90;;;;;;5050555;28;19904;-66
2023/01/16 05:19:52;;;;;;;;;;;3.40;99.90;;;;;;5056242;28;19905;-66
2023/01/16 05:22:18;;;;;;;;;;;3.50;99.90;;;;;;5051119;28;19913;-66
2023/01/16 05:24:43;;;;;;;;;;;3.60;99.90;;;;;;5036004;28;20289;-66
2023/01/16 05:27:08;;;;;;;;;;;3.70;99.90;;;;;;5038728;28;19986;-66
2023/01/16 05:29:34;;;;;;;;;;;3.70;99.90;;;;;;5036248;28;19916;-66
2023/01/16 05:31:59;;;;;;;;;;;3.70;99.90;;;;;;5035963;28;20000;-66
2023/01/16 05:34:25;;;;;;;;;;;3.80;99.90;;;;;;5038052;28;19909;-66
2023/01/16 05:36:50;;;;;;;;;;;3.90;99.90;;;;;;5035939;28;19912;-66
2023/01/16 05:39:16;;;;;;;;;;;4.10;99.90;;;;;;5035705;28;19911;-66
2023/01/16 05:41:41;;;;;;;;;;;4.10;99.90;;;;;;5042263;28;20016;-66
2023/01/16 05:44:07;;;;;;;;;;;4.10;99.90;;;;;;5037750;28;19905;-66
2023/01/16 05:46:32;;;;;;;;;;;4.10;99.90;;;;;;5035631;28;19905;-66
2023/01/16 05:48:57;;;;;;;;;;;4.10;99.90;;;;;;5035623;28;19905;-66
2023/01/16 05:51:23;;;;;;;;;;;4.20;99.90;;;;;;5035543;28;19905;-66
2023/01/16 05:53:49;;;;;;;;;;;4.20;99.90;;;;;;5053419;28;19905;-66
2023/01/16 05:56:15;;;;;;;;;;;4.10;99.90;;;;;;5055427;28;19909;-66
2023/01/16 05:58:40;;;;;;;;;;;4.10;99.90;;;;;;5044823;28;19968;-66
2023/01/16 06:01:06;;;;;;;;;;;4.10;99.90;;;;;;5041661;28;20439;-66
2023/01/16 06:03:31;;;;;;;;;;;4.10;99.90;;;;;;5055590;28;19912;-66
2023/01/16 06:05:58;;;;;;;;;;;4.10;99.90;;;;;;5051816;28;19905;-66
2023/01/16 06:08:24;;;;;;;;;;;4.00;99.90;;;;;;5035277;28;19909;-66
2023/01/16 06:10:50;;;;;;;;;;;4.00;99.90;;;;;;5035004;28;19971;-66
2023/01/16 06:13:15;;;;;;;;;;;3.90;99.90;;;;;;5035685;28;19909;-66
2023/01/16 06:15:41;;;;;;;;;;;3.80;99.90;;;;;;5035081;28;19905;-66
2023/01/16 06:18:07;;;;;;;;;;;3.80;99.90;;;;;;5048283;28;19943;-66
2023/01/16 06:20:32;;;;;;;;;;;3.80;99.90;;;;;;5054828;28;19908;-66
2023/01/16 06:22:58;;;;;;;;;;;3.90;99.90;;;;;;5051741;28;19909;-66
2023/01/16 06:25:23;;;;;;;;;;;3.90;99.90;;;;;;5034927;28;19913;-66
2023/01/16 06:27:49;;;;;;;;;;;3.90;99.90;;;;;;5035350;28;19951;-66
2023/01/16 06:30:15;;;;;;;;;;;3.90;99.90;;;;;;5036064;28;20007;-66
2023/01/16 06:32:40;;;;;;;;;;;3.90;99.90;;;;;;5034764;28;20363;-66
2023/01/16 06:35:06;;;;;;;;;;;3.90;99.90;;;;;;5034682;28;19905;-66
2023/01/16 06:37:31;;;;;;;;;;;3.90;99.90;;;;;;5034610;28;19999;-66
2023/01/16 06:39:59;;;;;;;;;;;3.90;99.90;;;;;;5040984;28;19908;-66
2023/01/16 06:42:25;;;;;;;;;;;3.90;99.90;;;;;;5054436;28;19915;-66
2023/01/16 06:44:50;;;;;;;;;;;3.90;99.90;;;;;;5054451;28;19984;-66
2023/01/16 06:47:16;;;;;;;;;;;4.00;99.90;;;;;;5054381;28;19961;-66
2023/01/16 06:49:41;;;;;;;;;;;3.90;99.90;;;;;;5054556;28;19947;-66
2023/01/16 06:52:07;;;;;;;;;;;3.90;99.90;;;;;;5054160;28;20341;-66
2023/01/16 06:54:32;;;;;;;;;;;4.00;99.90;;;;;;5054295;28;19939;-66
2023/01/16 06:56:58;;;;;;;;;;;4.00;99.90;;;;;;5054533;28;19911;-66
2023/01/16 06:59:23;;;;;;;;;;;3.90;99.90;;;;;;5054699;28;19905;-66
2023/01/16 07:01:48;;;;;;;;;;;3.90;99.90;;;;;;5053915;28;20360;-66
2023/01/16 07:04:14;;;;;;;;;;;3.90;99.90;;;;;;5054059;28;20326;-66
2023/01/16 07:06:42;;;;;;;;;;;3.90;99.90;;;;;;5054614;28;19904;-66
2023/01/16 07:09:07;;;;;;;;;;;3.90;99.90;;;;;;5051922;28;19909;-66
2023/01/16 07:11:32;;;;;;;;;;;3.90;99.90;;;;;;5049183;28;20329;-66
2023/01/16 07:24:56;;;;;;;;;;;3.90;99.90;;;;;;5034236;28;19912;-66
2023/01/16 07:27:21;;;;;;;;;;;3.90;99.90;;;;;;5046008;28;20372;-67
2023/01/16 07:29:47;;;;;;;;;;;3.90;99.90;;;;;;5046714;28;19909;-66
2023/01/16 07:32:12;;;;;;;;;;;3.90;99.90;;;;;;5044285;28;19905;-66
2023/01/16 07:34:37;;;;;;;;;;;3.90;99.90;;;;;;5053255;28;19904;-66
2023/01/16 07:37:03;;;;;;;;;;;3.90;99.90;;;;;;5053497;28;19920;-66
2023/01/16 07:39:28;;;;;;;;;;;3.90;99.90;;;;;;5053547;28;20375;-66
2023/01/16 07:41:54;;;;;;;;;;;3.80;99.90;;;;;;5035658;28;19919;-66
2023/01/16 07:44:19;;;;;;;;;;;3.80;99.90;;;;;;5050993;28;19915;-66
2023/01/16 07:46:45;;;;;;;;;;;3.80;99.90;;;;;;5053758;28;20364;-66
2023/01/16 07:49:10;;;;;;;;;;;3.80;99.90;;;;;;5052045;28;19995;-66
2023/01/16 07:51:36;;;;;;;;;;;3.70;99.90;;;;;;5053869;28;19905;-66
2023/01/16 07:54:01;;;;;;;;;;;3.70;99.90;;;;;;5047260;28;19905;-66
2023/01/16 07:56:26;;;;;;;;;;;3.70;99.90;;;;;;5033647;28;19909;-66
2023/01/16 07:58:54;;;;;;;;;;;3.70;99.90;;;;;;5033641;28;19951;-66
2023/01/16 08:01:19;;;;;;;;;;;3.70;99.90;;;;;;5048231;28;20276;-66
2023/01/16 08:03:45;;;;;;;;;;;3.70;99.90;;;;;;5053431;28;19950;-67
2023/01/16 08:06:10;;;;;;;;;;;3.70;99.90;;;;;;5053608;28;19931;-66
2023/01/16 08:08:36;;;;;;;;;;;3.60;99.90;;;;;;5054530;28;20015;-66
2023/01/16 08:13:45;;;;;;;;;;;3.70;99.90;;;;;;5053350;28;19912;-66
2023/01/16 08:16:11;;;;;;;;;;;3.70;99.90;;;;;;5053260;28;19905;-66
2023/01/16 08:18:36;;;;;;;;;;;3.70;99.90;;;;;;5053288;28;19905;-66
2023/01/16 08:21:02;;;;;;;;;;;3.70;99.90;;;;;;5053123;28;19909;-67
2023/01/16 08:23:27;;;;;;;;;;;3.80;99.90;;;;;;5054090;28;19995;-67
2023/01/16 08:25:53;;;;;;;;;;;3.80;99.90;;;;;;5057400;28;19916;-67
2023/01/16 08:28:18;;;;;;;;;;;3.80;99.90;;;;;;5057079;28;19911;-67
2023/01/16 08:30:43;;;;;;;;;;;3.80;99.90;;;;;;5056953;28;19908;-67
2023/01/16 08:33:09;;;;;;;;;;;3.80;99.90;;;;;;5057549;28;20003;-67
2023/01/16 08:35:34;;;;;;;;;;;3.90;99.90;;;;;;5056901;28;20383;-67
2023/01/16 08:38:00;;;;;;;;;;;3.90;99.90;;;;;;5055007;28;20473;-67
2023/01/16 08:40:26;;;;;;;;;;;3.90;99.90;;;;;;5036819;28;20319;-66
2023/01/16 08:51:22;;;;;;;;;;;4.10;99.90;;;;;;5056904;28;20314;-66
2023/01/16 08:53:51;;;;;;;;;;;4.10;99.90;;;;;;5056670;28;19905;-66
2023/01/16 08:56:17;;;;;;;;;;;4.10;99.90;;;;;;5056621;28;19909;-66
2023/01/16 08:58:42;;;;;;;;;;;4.10;99.90;;;;;;5038613;28;19905;-66
2023/01/16 09:01:08;;;;;;;;;;;4.10;99.90;;;;;;5056323;28;19962;-66
2023/01/16 09:03:34;;;;;;;;;;;4.10;99.90;;;;;;5053999;28;19912;-66
2023/01/16 09:05:59;;;;;;;;;;;4.20;99.90;;;;;;5038841;28;19915;-66
2023/01/16 09:08:25;;;;;;;;;;;4.20;99.90;;;;;;5051418;28;19912;-66
2023/01/16 09:13:50;;;;;;;;;;;4.20;99.90;;;;;;5038605;28;19916;-66
2023/01/16 09:16:16;;;;;;;;;;;4.20;99.90;;;;;;5036651;28;20327;-66
2023/01/16 09:18:41;;;;;;;;;;;4.30;99.90;;;;;;5036421;28;20314;-66
2023/01/16 09:21:10;;;;;;;;;;;4.30;99.90;;;;;;5044376;23;19928;-66
2023/01/16 09:23:35;;;;;;;;;;;4.40;99.90;;;;;;5036345;28;19909;-66
2023/01/16 09:26:01;;;;;;;;;;;4.40;99.90;;;;;;5020564;28;19905;-66
2023/01/16 09:28:26;;;;;;;;;;;4.40;99.90;;;;;;5016269;28;19906;-66
2023/01/16 09:30:52;;;;;;;;;;;4.40;99.90;;;;;;5024590;28;19928;-66
2023/01/16 09:33:17;;;;;;;;;;;4.40;99.90;;;;;;5035902;28;19905;-66
2023/01/16 09:35:43;;;;;;;;;;;4.40;99.90;;;;;;5033613;28;19912;-66
2023/01/16 09:38:08;;;;;;;;;;;4.40;99.90;;;;;;5015997;28;20350;-67
2023/01/16 09:40:34;;;;;;;;;;;4.40;99.90;;;;;;5015965;28;19909;-66
2023/01/16 09:43:38;;;;;;;;;;;4.40;99.90;;;;;;5016333;28;19917;-66
2023/01/16 09:46:22;;;;;;;;;;;4.40;99.90;;;;;;5016039;28;19961;-66
2023/01/16 09:49:00;;;;;;;;;;;4.40;99.90;;;;;;5027722;28;19928;-66
2023/01/16 09:58:35;;;;;;;;;;;4.40;99.90;;;;;;5035618;28;19909;-66
2023/01/16 10:00:09;;;;;;;;;;;4.50;99.90;;;;;;5015387;28;19912;-66
2023/01/16 10:02:35;;;;;;;;;;;4.50;99.90;;;;;;5015817;28;20292;-66
2023/01/16 10:05:03;;;;;;;;;;;4.50;99.90;;;;;;5015562;28;20004;-66
2023/01/16 10:07:29;;;;;;;;;;;4.60;99.90;;;;;;5015262;28;19905;-66
2023/01/16 10:09:57;;;;;;;;;;;4.60;99.90;;;;;;5015318;28;20012;-66
2023/01/16 10:12:26;;;;;;;;;;;4.60;99.90;;;;;;5015627;28;19905;-66
2023/01/16 10:15:07;;;;;;;;;;;4.60;99.90;;;;;;5015373;28;19906;-67
2023/01/16 10:17:51;;;;;;;;;;;4.50;99.90;;;;;;5015550;28;19905;-66
2023/01/16 10:20:35;;;;;;;;;;;4.50;99.90;;;;;;5015209;28;20357;-66
2023/01/16 10:23:19;;;;;;;;;;;4.50;99.90;;;;;;5015019;28;20335;-66
2023/01/16 10:25:47;;;;;;;;;;;4.50;99.90;;;;;;5015379;28;20296;-66
2023/01/16 10:28:31;;;;;;;;;;;4.50;99.90;;;;;;5015373;28;19905;-66
2023/01/16 10:31:00;;;;;;;;;;;4.50;99.90;;;;;;5034369;28;19959;-67
2023/01/16 10:33:32;;;;;;;;;;;4.50;99.90;;;;;;5033555;28;19996;-66
2023/01/16 10:35:59;;;;;;;;;;;4.60;99.90;;;;;;5015158;28;20005;-66
2023/01/16 10:49:25;;;;;;;;;;;4.70;99.90;;;;;;5034359;28;19916;-66
2023/01/16 10:49:28;;;;;;;;;;;4.80;99.90;;;;;;5034770;28;19911;-66
2023/01/16 10:51:54;;;;;;;;;;;4.70;99.90;;;;;;5034678;28;20004;-66
2023/01/16 10:54:20;;;;;;;;;;;4.70;99.90;;;;;;5034686;28;19954;-66
2023/01/16 10:56:45;;;;;;;;;;;4.70;99.90;;;;;;5024752;28;19909;-66
2023/01/16 10:59:11;;;;;;;;;;;4.70;99.90;;;;;;5014815;28;19905;-66
2023/01/16 11:01:37;;;;;;;;;;;4.70;99.90;;;;;;5029089;28;19909;-66
2023/01/16 11:04:04;;;;;;;;;;;4.70;99.90;;;;;;5034330;28;19905;-66
2023/01/16 11:06:30;;;;;;;;;;;4.80;99.90;;;;;;5023860;28;19905;-65
2023/01/16 11:09:06;;;;;;;;;;;4.80;99.90;;;;;;5014493;28;19905;-66
2023/01/16 11:20:17;;;;;;;;;;;4.90;99.90;;;;;;5014450;28;19960;-66
2023/01/16 11:22:44;;;;;;;;;;;4.90;99.90;;;;;;5014137;28;19910;-66
2023/01/16 11:25:17;;;;;;;;;;;4.90;99.90;;;;;;5012103;28;19905;-66
2023/01/16 11:27:42;;;;;;;;;;;4.90;99.90;;;;;;4996577;28;19963;-65
2023/01/16 11:30:15;;;;;;;;;;;4.90;99.90;;;;;;5013460;28;20304;-66
2023/01/16 11:32:47;;;;;;;;;;;5.00;99.90;;;;;;5013985;28;20008;-66
2023/01/16 11:35:15;;;;;;;;;;;5.00;99.90;;;;;;5014196;28;20357;-66
2023/01/16 11:37:42;;;;;;;;;;;4.90;99.90;;;;;;5014073;28;19997;-66
2023/01/16 11:40:14;;;;;;;;;;;4.90;99.90;;;;;;5013422;28;19906;-66
2023/01/16 11:48:23;;;;;;;;;;;4.90;99.90;;;;;;5014260;28;19959;-66
2023/01/16 11:50:50;;;;;;;;;;;4.90;99.90;;;;;;5013825;28;19909;-66
2023/01/16 11:53:15;;;;;;;;;;;4.90;99.90;;;;;;5013774;28;19960;-66
2023/01/16 11:55:48;;;;;;;;;;;4.90;99.90;;;;;;5013662;28;19906;-66
2023/01/16 11:58:19;;;;;;;;;;;4.90;99.90;;;;;;5016152;28;19993;-66
2023/01/16 12:00:54;;;;;;;;;;;4.90;99.90;;;;;;5017639;28;19940;-66
2023/01/16 12:03:32;;;;;;;;;;;4.90;99.90;;;;;;5017846;28;19971;-66
2023/01/16 12:06:16;;;;;;;;;;;4.80;99.90;;;;;;5017832;28;19909;-66
2023/01/16 12:08:47;;;;;;;;;;;4.80;99.90;;;;;;5017672;28;19905;-66
2023/01/16 12:11:24;;;;;;;;;;;4.80;99.90;;;;;;5017969;28;19968;-66
2023/01/16 12:14:20;;;;;;;;;;;4.80;99.90;;;;;;5017109;28;19906;-66
2023/01/16 12:17:04;;;;;;;;;;;4.80;99.90;;;;;;5005639;28;20417;-66
2023/01/16 12:19:48;;;;;;;;;;;4.80;99.90;;;;;;5017437;28;19913;-66
2023/01/16 12:22:46;;;;;;;;;;;4.90;99.90;;;;;;5017335;28;19917;-66
2023/01/16 12:25:21;;;;;;;;;;;4.90;99.90;;;;;;4994867;28;20020;-66
2023/01/16 12:28:05;;;;;;;;;;;5.00;99.90;;;;;;5017606;28;19905;-66
2023/01/16 12:30:31;;;;;;;;;;;5.00;99.90;;;;;;5017276;28;20353;-66
2023/01/16 12:33:12;;;;;;;;;;;5.00;99.90;;;;;;5017173;28;19905;-66
2023/01/16 12:35:59;;;;;;;;;;;5.00;99.90;;;;;;5017758;28;19906;-66
2023/01/16 12:38:24;;;;;;;;;;;5.00;99.90;;;;;;5017354;28;19906;-66
2023/01/16 12:40:50;;;;;;;;;;;5.00;99.90;;;;;;5017471;28;19905;-66
2023/01/16 12:43:19;;;;;;;;;;;5.00;99.90;;;;;;5016854;28;19920;-66
2023/01/16 12:45:48;;;;;;;;;;;5.00;99.90;;;;;;5017076;28;19914;-66
2023/01/16 12:48:34;;;;;;;;;;;5.00;99.90;;;;;;5017403;28;19928;-66
2023/01/16 12:51:18;;;;;;;;;;;5.00;99.90;;;;;;5016448;28;19905;-66
2023/01/16 12:54:02;;;;;;;;;;;5.00;99.90;;;;;;5016842;28;19964;-66
2023/01/16 12:56:37;;;;;;;;;;;5.00;99.90;;;;;;5016394;28;19916;-66
2023/01/16 12:59:24;;;;;;;;;;;5.00;99.90;;;;;;5017133;28;19968;-66
2023/01/16 13:01:55;;;;;;;;;;;5.00;99.90;;;;;;5016336;28;20047;-66
2023/01/16 13:04:23;;;;;;;;;;;4.90;99.90;;;;;;5017095;28;19905;-66
2023/01/16 13:06:51;;;;;;;;;;;4.90;99.90;;;;;;5016718;28;19910;-66
2023/01/16 13:09:23;;;;;;;;;;;4.90;99.90;;;;;;5015769;28;20004;-66
2023/01/16 13:14:37;;;;;;;;;;;4.90;99.90;;;;;;5017194;28;20056;-66
2023/01/16 13:17:09;;;;;;;;;;;4.90;99.90;;;;;;5016571;28;19912;-66
2023/01/16 13:19:37;;;;;;;;;;;4.90;99.90;;;;;;4998469;28;19918;-66
2023/01/16 13:22:06;;;;;;;;;;;4.80;99.90;;;;;;5016657;28;19910;-66
2023/01/16 13:24:46;;;;;;;;;;;4.90;99.90;;;;;;5016529;28;19905;-66
2023/01/16 13:27:17;;;;;;;;;;;4.80;99.90;;;;;;5016398;28;20394;-66
2023/01/16 13:29:47;;;;;;;;;;;4.80;99.90;;;;;;5016319;28;19952;-66
2023/01/16 13:32:31;;;;;;;;;;;4.80;99.90;;;;;;4996593;28;19906;-66
2023/01/16 13:35:05;;;;;;;;;;;4.80;99.90;;;;;;4996751;28;19957;-66
2023/01/16 13:37:48;;;;;;;;;;;4.80;99.90;;;;;;5014747;28;19956;-66
2023/01/16 13:40:29;;;;;;;;;;;4.70;99.90;;;;;;5016367;28;20285;-66
2023/01/16 13:42:57;;;;;;;;;;;4.80;99.90;;;;;;5015838;28;19932;-66
2023/01/16 13:45:47;;;;;;;;;;;4.80;99.90;;;;;;5015993;28;19905;-66
2023/01/16 13:48:13;;;;;;;;;;;4.80;99.90;;;;;;5016074;28;19912;-66
2023/01/16 13:50:44;;;;;;;;;;;4.80;99.90;;;;;;5015791;28;19980;-66
2023/01/16 13:53:13;;;;;;;;;;;4.80;99.90;;;;;;5015179;28;20003;-66
2023/01/16 13:55:40;;;;;;;;;;;4.70;99.90;;;;;;5015776;28;19905;-66
2023/01/16 13:58:09;;;;;;;;;;;4.70;99.90;;;;;;5015852;28;19905;-66
2023/01/16 14:00:35;;;;;;;;;;;4.70;99.90;;;;;;5014538;28;20346;-66
2023/01/16 14:03:03;;;;;;;;;;;4.70;99.90;;;;;;5015548;28;19909;-66
2023/01/16 14:05:37;;;;;;;;;;;4.70;99.90;;;;;;5015590;28;19912;-66
2023/01/16 14:10:57;;;;;;;;;;;4.70;99.90;;;;;;4995829;28;20104;-66
2023/01/16 14:13:24;;;;;;;;;;;4.70;99.90;;;;;;5013032;28;19937;-65
2023/01/16 14:18:39;;;;;;;;;;;4.60;99.90;;;;;;5015340;28;19960;-65
2023/01/16 14:21:09;;;;;;;;;;;4.60;99.90;;;;;;5014426;28;20005;-65
2023/01/16 14:26:39;;;;;;;;;;;4.70;99.90;;;;;;5014593;28;19912;-66
2023/01/16 14:29:10;;;;;;;;;;;4.70;99.90;;;;;;4995721;28;19913;-66
2023/01/16 14:31:39;;;;;;;;;;;4.70;99.90;;;;;;5008942;28;19914;-66
2023/01/16 14:34:04;;;;;;;;;;;4.60;99.90;;;;;;5014682;28;19916;-66
2023/01/16 14:36:33;;;;;;;;;;;4.60;99.90;;;;;;5015264;28;19944;-66
2023/01/16 14:38:58;;;;;;;;;;;4.60;99.90;;;;;;5014820;28;19905;-66
2023/01/16 14:55:25;;;;;;;;;;;4.50;99.90;;;;;;5014493;28;19913;-66
2023/01/16 14:57:51;;;;;;;;;;;4.50;99.90;;;;;;5014660;28;19912;-66
2023/01/16 15:00:19;;;;;;;;;;;4.50;99.90;;;;;;5014359;28;20349;-66
2023/01/16 15:02:57;;;;;;;;;;;4.50;99.90;;;;;;4996897;28;19909;-66
2023/01/16 15:05:51;;;;;;;;;;;4.50;99.90;;;;;;5014808;28;19995;-66
2023/01/16 15:08:20;;;;;;;;;;;4.40;99.90;;;;;;4995192;28;19913;-66
2023/01/16 15:10:46;;;;;;;;;;;4.40;99.90;;;;;;5000747;28;20047;-66
2023/01/16 15:16:18;;;;;;;;;;;4.40;99.90;;;;;;5014021;28;20383;-66
2023/01/16 15:24:16;;;;;;;;;;;4.40;99.90;;;;;;5014514;28;20280;-66
2023/01/16 15:26:47;;;;;;;;;;;4.30;99.90;;;;;;5014180;28;19995;-66
2023/01/16 15:29:12;;;;;;;;;;;4.30;99.90;;;;;;5013056;28;19910;-65
2023/01/16 15:31:39;;;;;;;;;;;4.30;99.90;;;;;;5013938;28;20004;-65
2023/01/16 15:34:16;;;;;;;;;;;4.30;99.90;;;;;;5014199;28;19909;-65
2023/01/16 15:36:44;;;;;;;;;;;4.30;99.90;;;;;;5014393;28;19905;-65
2023/01/16 15:39:16;;;;;;;;;;;4.30;99.90;;;;;;5014331;28;19906;-66
2023/01/16 15:47:27;;;;;;;;;;;4.20;99.90;;;;;;5014323;28;19912;-65
2023/01/16 15:50:11;;;;;;;;;;;4.20;99.90;;;;;;5014460;28;19913;-65
2023/01/16 15:52:39;;;;;;;;;;;4.20;99.90;;;;;;4994207;28;19929;-66
2023/01/16 15:55:15;;;;;;;;;;;4.20;99.90;;;;;;4976850;28;20398;-66
2023/01/16 15:57:43;;;;;;;;;;;4.20;99.90;;;;;;4994235;28;19995;-66
2023/01/16 16:00:21;;;;;;;;;;;4.10;99.90;;;;;;4994657;28;19905;-66
2023/01/16 16:02:47;;;;;;;;;;;4.10;99.90;;;;;;5013631;28;19913;-66
2023/01/16 16:05:14;;;;;;;;;;;4.10;99.90;;;;;;5013418;28;19905;-66
2023/01/16 16:07:39;;;;;;;;;;;4.10;99.90;;;;;;5013070;28;19916;-66
2023/01/16 16:10:06;;;;;;;;;;;4.10;99.90;;;;;;5012929;28;19913;-66
2023/01/16 16:12:32;;;;;;;;;;;4.10;99.90;;;;;;5013756;28;19905;-66
2023/01/16 16:18:15;;;;;;;;;;;4.00;99.90;;;;;;5006458;28;20387;-66
2023/01/16 16:20:42;;;;;;;;;;;4.00;99.90;;;;;;5012271;28;19929;-66